sensor_id;sensor_type;location;lat;lon;timestamp;pressure;altitude;pressure_sealevel;temperature;humidity
43770;BME280;6597;52.218;9.882;2023-05-08T00:01:24;101524.69;;;8.09;100.00
43770;BME280;6597;52.218;9.882;2023-05-08T00:03:52;101529.97;;;8.06;100.00
43770;BME280;6597;52.218;9.882;2023-05-08T00:06:19;101527.28;;;8.11;100.00
43770;BME280;6597;52.218;9.882;2023-05-08T00:08:46;101522.91;;;8.11;100.00
43770;BME280;6597;52.218;9.882;2023-05-08T00:11:12;101530.78;;;8.10;100.00
43770;BME280;6597;52.218;9.882;2023-05-08T00:13:39;101528.22;;;8.07;100.00
43770;BME280;6597;52.218;9.882;2023-05-08T00:16:06;101523.81;;;8.09;100.00
43770;BME280;6597;52.218;9.882;2023-05-08T00:18:33;101536.06;;;8.07;100.00
43770;BME280;6597;52.218;9.882;2023-05-08T00:21:01;101527.34;;;8.06;100.00
43770;BME280;6597;52.218;9.882;2023-05-08T00:23:28;101525.63;;;8.05;100.00
43770;BME280;6597;52.218;9.882;2023-05-08T00:25:54;101532.66;;;8.00;100.00
43770;BME280;6597;52.218;9.882;2023-05-08T00:28:21;101533.53;;;7.99;100.00
43770;BME280;6597;52.218;9.882;2023-05-08T00:30:47;101533.59;;;7.96;100.00
43770;BME280;6597;52.218;9.882;2023-05-08T00:33:14;101531.84;;;7.95;100.00
43770;BME280;6597;52.218;9.882;2023-05-08T00:35:40;101535.34;;;7.96;100.00
43770;BME280;6597;52.218;9.882;2023-05-08T00:38:09;101535.34;;;7.96;100.00
43770;BME280;6597;52.218;9.882;2023-05-08T00:40:35;101529.19;;;7.98;100.00
43770;BME280;6597;52.218;9.882;2023-05-08T00:43:02;101533.56;;;7.98;100.00
43770;BME280;6597;52.218;9.882;2023-05-08T00:45:32;101529.19;;;7.98;100.00
43770;BME280;6597;52.218;9.882;2023-05-08T00:48:01;101530.91;;;8.01;100.00
43770;BME280;6597;52.218;9.882;2023-05-08T00:50:28;101534.44;;;7.98;100.00
43770;BME280;6597;52.218;9.882;2023-05-08T00:52:55;101537.06;;;7.97;100.00
43770;BME280;6597;52.218;9.882;2023-05-08T00:55:24;101530.06;;;7.99;100.00
43770;BME280;6597;52.218;9.882;2023-05-08T00:57:52;101524.84;;;7.97;100.00
43770;BME280;6597;52.218;9.882;2023-05-08T01:00:19;101524.94;;;7.91;100.00
43770;BME280;6597;52.218;9.882;2023-05-08T01:02:46;101528.44;;;7.90;100.00
43770;BME280;6597;52.218;9.882;2023-05-08T01:05:12;101525.84;;;7.87;100.00
43770;BME280;6597;52.218;9.882;2023-05-08T01:07:39;101525.00;;;7.85;100.00
43770;BME280;6597;52.218;9.882;2023-05-08T01:10:06;101523.31;;;7.83;100.00
43770;BME280;6597;52.218;9.882;2023-05-08T01:12:44;101530.28;;;7.79;100.00
43770;BME280;6597;52.218;9.882;2023-05-08T01:15:15;101527.69;;;7.76;100.00
43770;BME280;6597;52.218;9.882;2023-05-08T01:17:53;101517.31;;;7.70;100.00
43770;BME280;6597;52.218;9.882;2023-05-08T01:20:31;101528.69;;;7.66;100.00
43770;BME280;6597;52.218;9.882;2023-05-08T01:23:13;101528.69;;;7.66;100.00
43770;BME280;6597;52.218;9.882;2023-05-08T01:26:05;101524.31;;;7.68;100.00
43770;BME280;6597;52.218;9.882;2023-05-08T01:28:58;101525.19;;;7.68;100.00
43770;BME280;6597;52.218;9.882;2023-05-08T01:31:37;101530.44;;;7.65;100.00
43770;BME280;6597;52.218;9.882;2023-05-08T01:34:14;101519.16;;;7.63;100.00
43770;BME280;6597;52.218;9.882;2023-05-08T01:36:49;101516.56;;;7.62;100.00
43770;BME280;6597;52.218;9.882;2023-05-08T01:39:19;101520.97;;;7.57;100.00
43770;BME280;6597;52.218;9.882;2023-05-08T01:41:50;101514.84;;;7.58;100.00
43770;BME280;6597;52.218;9.882;2023-05-08T01:44:23;101524.47;;;7.56;100.00
43770;BME280;6597;52.218;9.882;2023-05-08T01:46:54;101519.25;;;7.54;100.00
43770;BME280;6597;52.218;9.882;2023-05-08T01:49:24;101521.81;;;7.57;100.00
43770;BME280;6597;52.218;9.882;2023-05-08T01:52:05;101521.81;;;7.59;100.00
43770;BME280;6597;52.218;9.882;2023-05-08T01:54:35;101520.94;;;7.58;100.00
43770;BME280;6597;52.218;9.882;2023-05-08T01:57:05;101527.06;;;7.56;100.00
43770;BME280;6597;52.218;9.882;2023-05-08T01:59:35;101527.03;;;7.60;100.00
43770;BME280;6597;52.218;9.882;2023-05-08T02:02:04;101526.16;;;7.58;100.00
43770;BME280;6597;52.218;9.882;2023-05-08T02:04:33;101528.88;;;7.51;100.00
43770;BME280;6597;52.218;9.882;2023-05-08T02:07:04;101524.56;;;7.43;100.00
43770;BME280;6597;52.218;9.882;2023-05-08T02:09:31;101521.13;;;7.40;100.00
43770;BME280;6597;52.218;9.882;2023-05-08T02:11:59;101527.28;;;7.34;100.00
43770;BME280;6597;52.218;9.882;2023-05-08T02:14:27;101510.78;;;7.29;100.00
43770;BME280;6597;52.218;9.882;2023-05-08T02:16:56;101522.03;;;7.36;100.00
43770;BME280;6597;52.218;9.882;2023-05-08T02:19:24;101524.69;;;7.33;100.00
43770;BME280;6597;52.218;9.882;2023-05-08T02:21:54;101521.22;;;7.31;100.00
43770;BME280;6597;52.218;9.882;2023-05-08T02:24:23;101526.47;;;7.28;100.00
43770;BME280;6597;52.218;9.882;2023-05-08T02:26:51;101523.97;;;7.17;100.00
43770;BME280;6597;52.218;9.882;2023-05-08T02:29:20;101533.53;;;7.18;100.00
43770;BME280;6597;52.218;9.882;2023-05-08T02:31:48;101523.97;;;7.15;100.00
43770;BME280;6597;52.218;9.882;2023-05-08T02:34:16;101526.56;;;7.17;100.00
43770;BME280;6597;52.218;9.882;2023-05-08T02:36:44;101525.72;;;7.12;100.00
43770;BME280;6597;52.218;9.882;2023-05-08T02:39:13;101526.69;;;7.02;100.00
43770;BME280;6597;52.218;9.882;2023-05-08T02:41:40;101526.69;;;7.00;100.00
43770;BME280;6597;52.218;9.882;2023-05-08T02:44:07;101525.84;;;6.98;100.00
43770;BME280;6597;52.218;9.882;2023-05-08T02:46:43;101525.03;;;6.92;100.00
43770;BME280;6597;52.218;9.882;2023-05-08T02:49:19;101528.59;;;6.84;100.00
43770;BME280;6597;52.218;9.882;2023-05-08T02:51:54;101522.50;;;6.78;100.00
43770;BME280;6597;52.218;9.882;2023-05-08T02:54:34;101523.44;;;6.72;100.00
43770;BME280;6597;52.218;9.882;2023-05-08T02:57:07;101524.34;;;6.67;100.00
43770;BME280;6597;52.218;9.882;2023-05-08T02:59:41;101526.09;;;6.63;100.00
43770;BME280;6597;52.218;9.882;2023-05-08T03:02:12;101519.19;;;6.58;100.00
43770;BME280;6597;52.218;9.882;2023-05-08T03:04:45;101528.78;;;6.55;100.00
43770;BME280;6597;52.218;9.882;2023-05-08T03:07:15;101524.44;;;6.53;100.00
43770;BME280;6597;52.218;9.882;2023-05-08T03:09:46;101519.22;;;6.54;100.00
43770;BME280;6597;52.218;9.882;2023-05-08T03:12:21;101513.13;;;6.54;100.00
43770;BME280;6597;52.218;9.882;2023-05-08T03:14:55;101519.19;;;6.58;100.00
43770;BME280;6597;52.218;9.882;2023-05-08T03:17:27;101514.88;;;6.53;100.00
43770;BME280;6597;52.218;9.882;2023-05-08T03:19:58;101514.88;;;6.47;100.00
43770;BME280;6597;52.218;9.882;2023-05-08T03:22:27;101520.97;;;6.48;100.00
43770;BME280;6597;52.218;9.882;2023-05-08T03:24:58;101520.13;;;6.46;100.00
43770;BME280;6597;52.218;9.882;2023-05-08T03:27:27;101500.19;;;6.37;100.00
43770;BME280;6597;52.218;9.882;2023-05-08T03:29:55;101522.72;;;6.44;100.00
43770;BME280;6597;52.218;9.882;2023-05-08T03:32:25;101514.94;;;6.40;100.00
43770;BME280;6597;52.218;9.882;2023-05-08T03:34:53;101508.91;;;6.30;100.00
43770;BME280;6597;52.218;9.882;2023-05-08T03:37:20;101511.50;;;6.35;100.00
43770;BME280;6597;52.218;9.882;2023-05-08T03:39:47;101514.16;;;6.29;100.00
43770;BME280;6597;52.218;9.882;2023-05-08T03:42:15;101517.63;;;6.29;100.00
43770;BME280;6597;52.218;9.882;2023-05-08T03:44:47;101511.53;;;6.30;100.00
43770;BME280;6597;52.218;9.882;2023-05-08T03:47:15;101502.81;;;6.33;100.00
43770;BME280;6597;52.218;9.882;2023-05-08T03:49:44;101510.59;;;6.39;100.00
43770;BME280;6597;52.218;9.882;2023-05-08T03:52:11;101508.84;;;6.42;100.00
43770;BME280;6597;52.218;9.882;2023-05-08T03:54:38;101515.75;;;6.46;100.00
43770;BME280;6597;52.218;9.882;2023-05-08T03:57:05;101513.16;;;6.45;100.00
43770;BME280;6597;52.218;9.882;2023-05-08T03:59:37;101508.81;;;6.44;100.00
43770;BME280;6597;52.218;9.882;2023-05-08T04:02:13;101518.38;;;6.48;100.00
43770;BME280;6597;52.218;9.882;2023-05-08T04:04:46;101514.03;;;6.51;100.00
43770;BME280;6597;52.218;9.882;2023-05-08T04:07:22;101513.13;;;6.55;100.00
43770;BME280;6597;52.218;9.882;2023-05-08T04:09:57;101509.59;;;6.63;100.00
43770;BME280;6597;52.218;9.882;2023-05-08T04:12:32;101513.03;;;6.66;100.00
43770;BME280;6597;52.218;9.882;2023-05-08T04:15:06;101500.84;;;6.70;100.00
43770;BME280;6597;52.218;9.882;2023-05-08T04:17:39;101512.09;;;6.76;100.00
43770;BME280;6597;52.218;9.882;2023-05-08T04:20:10;101514.63;;;6.87;100.00
43770;BME280;6597;52.218;9.882;2023-05-08T04:22:39;101513.72;;;6.94;100.00
43770;BME280;6597;52.218;9.882;2023-05-08T04:25:09;101513.69;;;6.96;100.00
43770;BME280;6597;52.218;9.882;2023-05-08T04:27:37;101515.34;;;7.04;100.00
43770;BME280;6597;52.218;9.882;2023-05-08T04:30:08;101508.34;;;7.09;100.00
43770;BME280;6597;52.218;9.882;2023-05-08T04:32:36;101507.41;;;7.15;100.00
43770;BME280;6597;52.218;9.882;2023-05-08T04:35:04;101515.25;;;7.20;100.00
43770;BME280;6597;52.218;9.882;2023-05-08T04:37:31;101516.09;;;7.22;100.00
43770;BME280;6597;52.218;9.882;2023-05-08T04:40:01;101520.41;;;7.26;100.00
43770;BME280;6597;52.218;9.882;2023-05-08T04:42:29;101526.47;;;7.28;100.00
43770;BME280;6597;52.218;9.882;2023-05-08T04:44:58;101524.72;;;7.28;100.00
43770;BME280;6597;52.218;9.882;2023-05-08T04:47:26;101523.84;;;7.29;100.00
43770;BME280;6597;52.218;9.882;2023-05-08T04:49:53;101528.16;;;7.33;100.00
43770;BME280;6597;52.218;9.882;2023-05-08T04:52:19;101537.66;;;7.40;100.00
43770;BME280;6597;52.218;9.882;2023-05-08T04:54:46;101523.72;;;7.41;100.00
43770;BME280;6597;52.218;9.882;2023-05-08T04:57:13;101536.78;;;7.41;100.00
43770;BME280;6597;52.218;9.882;2023-05-08T04:59:39;101535.00;;;7.45;100.00
43770;BME280;6597;52.218;9.882;2023-05-08T05:02:06;101538.44;;;7.50;100.00
43770;BME280;6597;52.218;9.882;2023-05-08T05:04:35;101541.03;;;7.55;100.00
43770;BME280;6597;52.218;9.882;2023-05-08T05:07:03;101534.84;;;7.62;100.00
43770;BME280;6597;52.218;9.882;2023-05-08T05:09:30;101550.47;;;7.65;100.00
43770;BME280;6597;52.218;9.882;2023-05-08T05:12:01;101553.06;;;7.68;100.00
43770;BME280;6597;52.218;9.882;2023-05-08T05:14:28;101549.50;;;7.73;100.00
43770;BME280;6597;52.218;9.882;2023-05-08T05:16:55;101552.06;;;7.78;100.00
43770;BME280;6597;52.218;9.882;2023-05-08T05:19:22;101551.16;;;7.84;100.00
43770;BME280;6597;52.218;9.882;2023-05-08T05:21:50;101554.59;;;7.89;100.00
43770;BME280;6597;52.218;9.882;2023-05-08T05:24:17;101545.78;;;7.96;100.00
43770;BME280;6597;52.218;9.882;2023-05-08T05:26:43;101551.00;;;7.97;100.00
43770;BME280;6597;52.218;9.882;2023-05-08T05:29:10;101541.38;;;7.99;98.40
43770;BME280;6597;52.218;9.882;2023-05-08T05:31:37;101547.47;;;8.00;97.62
43770;BME280;6597;52.218;9.882;2023-05-08T05:34:04;101544.03;;;7.98;97.80
43770;BME280;6597;52.218;9.882;2023-05-08T05:36:30;101544.91;;;7.97;97.31
43770;BME280;6597;52.218;9.882;2023-05-08T05:38:58;101545.72;;;8.02;97.71
43770;BME280;6597;52.218;9.882;2023-05-08T05:41:25;101547.41;;;8.04;97.71
43770;BME280;6597;52.218;9.882;2023-05-08T05:43:51;101550.00;;;8.06;96.72
43770;BME280;6597;52.218;9.882;2023-05-08T05:46:18;101554.34;;;8.07;97.18
43770;BME280;6597;52.218;9.882;2023-05-08T05:48:44;101543.84;;;8.11;96.97
43770;BME280;6597;52.218;9.882;2023-05-08T05:51:12;101551.59;;;8.21;97.46
43770;BME280;6597;52.218;9.882;2023-05-08T05:53:38;101545.38;;;8.29;97.38
43770;BME280;6597;52.218;9.882;2023-05-08T05:56:06;101548.84;;;8.31;96.35
43770;BME280;6597;52.218;9.882;2023-05-08T05:58:33;101554.91;;;8.36;95.45
43770;BME280;6597;52.218;9.882;2023-05-08T06:01:00;101551.28;;;8.45;95.77
43770;BME280;6597;52.218;9.882;2023-05-08T06:03:26;101550.38;;;8.51;94.87
43770;BME280;6597;52.218;9.882;2023-05-08T06:05:53;101554.72;;;8.52;92.77
43770;BME280;6597;52.218;9.882;2023-05-08T06:08:19;101549.44;;;8.53;94.38
43770;BME280;6597;52.218;9.882;2023-05-08T06:10:47;101551.03;;;8.63;93.76
43770;BME280;6597;52.218;9.882;2023-05-08T06:13:15;101559.63;;;8.73;93.29
43770;BME280;6597;52.218;9.882;2023-05-08T06:15:41;101558.63;;;8.83;92.98
43770;BME280;6597;52.218;9.882;2023-05-08T06:18:08;101558.50;;;8.91;92.22
43770;BME280;6597;52.218;9.882;2023-05-08T06:20:36;101563.59;;;8.98;91.97
43770;BME280;6597;52.218;9.882;2023-05-08T06:23:02;101561.59;;;9.16;91.80
43770;BME280;6597;52.218;9.882;2023-05-08T06:25:29;101570.84;;;9.36;91.42
43770;BME280;6597;52.218;9.882;2023-05-08T06:27:56;101565.28;;;9.55;90.08
43770;BME280;6597;52.218;9.882;2023-05-08T06:30:24;101563.91;;;9.82;89.01
43770;BME280;6597;52.218;9.882;2023-05-08T06:32:50;101567.13;;;9.96;87.71
43770;BME280;6597;52.218;9.882;2023-05-08T06:35:17;101571.91;;;10.19;87.32
43770;BME280;6597;52.218;9.882;2023-05-08T06:37:43;101561.91;;;10.38;85.44
43770;BME280;6597;52.218;9.882;2023-05-08T06:40:11;101563.88;;;10.68;84.79
43770;BME280;6597;52.218;9.882;2023-05-08T06:42:39;101565.00;;;10.95;82.50
43770;BME280;6597;52.218;9.882;2023-05-08T06:45:07;101564.19;;;11.29;81.46
43770;BME280;6597;52.218;9.882;2023-05-08T06:47:35;101560.94;;;11.53;78.73
43770;BME280;6597;52.218;9.882;2023-05-08T06:50:02;101559.28;;;11.83;78.57
43770;BME280;6597;52.218;9.882;2023-05-08T06:52:28;101568.28;;;12.07;78.47
43770;BME280;6597;52.218;9.882;2023-05-08T06:54:55;101560.75;;;12.24;77.21
43770;BME280;6597;52.218;9.882;2023-05-08T06:57:21;101557.84;;;12.33;76.05
43770;BME280;6597;52.218;9.882;2023-05-08T06:59:51;101553.94;;;12.46;74.99
43770;BME280;6597;52.218;9.882;2023-05-08T07:02:17;101559.84;;;12.55;74.05
43770;BME280;6597;52.218;9.882;2023-05-08T07:04:45;101558.44;;;12.72;73.15
43770;BME280;6597;52.218;9.882;2023-05-08T07:07:12;101559.84;;;12.83;72.79
43770;BME280;6597;52.218;9.882;2023-05-08T07:09:39;101567.59;;;12.59;71.73
43770;BME280;6597;52.218;9.882;2023-05-08T07:12:06;101571.56;;;12.74;72.25
43770;BME280;6597;52.218;9.882;2023-05-08T07:14:33;101562.19;;;12.92;72.86
43770;BME280;6597;52.218;9.882;2023-05-08T07:17:01;101563.75;;;12.97;71.28
43770;BME280;6597;52.218;9.882;2023-05-08T07:19:31;101566.44;;;13.24;72.25
43770;BME280;6597;52.218;9.882;2023-05-08T07:21:59;101570.47;;;13.35;70.22
43770;BME280;6597;52.218;9.882;2023-05-08T07:24:25;101557.44;;;13.56;69.14
43770;BME280;6597;52.218;9.882;2023-05-08T07:26:52;101570.00;;;13.74;70.64
43770;BME280;6597;52.218;9.882;2023-05-08T07:29:19;101574.91;;;13.85;68.40
43770;BME280;6597;52.218;9.882;2023-05-08T07:31:45;101568.69;;;14.11;67.01
43770;BME280;6597;52.218;9.882;2023-05-08T07:34:12;101567.84;;;14.33;67.13
43770;BME280;6597;52.218;9.882;2023-05-08T07:36:39;101572.50;;;14.50;65.57
43770;BME280;6597;52.218;9.882;2023-05-08T07:39:07;101567.31;;;14.71;65.70
43770;BME280;6597;52.218;9.882;2023-05-08T07:41:34;101564.22;;;14.59;66.44
43770;BME280;6597;52.218;9.882;2023-05-08T07:44:01;101566.00;;;14.59;65.52
43770;BME280;6597;52.218;9.882;2023-05-08T07:46:27;101567.34;;;14.47;65.51
43770;BME280;6597;52.218;9.882;2023-05-08T07:48:54;101567.53;;;14.41;66.52
43770;BME280;6597;52.218;9.882;2023-05-08T07:51:21;101563.91;;;14.45;66.66
43770;BME280;6597;52.218;9.882;2023-05-08T07:53:47;101568.47;;;14.40;65.49
43770;BME280;6597;52.218;9.882;2023-05-08T07:56:16;101577.03;;;14.47;65.62
43770;BME280;6597;52.218;9.882;2023-05-08T07:58:43;101567.66;;;14.61;66.01
43770;BME280;6597;52.218;9.882;2023-05-08T08:01:10;101563.00;;;14.90;65.06
43770;BME280;6597;52.218;9.882;2023-05-08T08:03:37;101560.94;;;14.98;65.59
43770;BME280;6597;52.218;9.882;2023-05-08T08:06:03;101566.03;;;15.03;63.86
43770;BME280;6597;52.218;9.882;2023-05-08T08:08:30;101566.44;;;15.36;63.24
43770;BME280;6597;52.218;9.882;2023-05-08T08:10:56;101565.09;;;15.68;62.62
43770;BME280;6597;52.218;9.882;2023-05-08T08:13:24;101563.94;;;15.73;61.54
43770;BME280;6597;52.218;9.882;2023-05-08T08:15:51;101568.31;;;15.74;62.17
43770;BME280;6597;52.218;9.882;2023-05-08T08:18:17;101571.91;;;15.73;60.71
43770;BME280;6597;52.218;9.882;2023-05-08T08:20:44;101573.78;;;15.90;59.78
43770;BME280;6597;52.218;9.882;2023-05-08T08:23:11;101577.50;;;16.06;60.60
43770;BME280;6597;52.218;9.882;2023-05-08T08:25:38;101567.41;;;16.14;59.55
43770;BME280;6597;52.218;9.882;2023-05-08T08:28:04;101571.38;;;16.43;59.26
43770;BME280;6597;52.218;9.882;2023-05-08T08:30:32;101564.78;;;16.52;59.77
43770;BME280;6597;52.218;9.882;2023-05-08T08:32:58;101565.75;;;16.70;59.09
43770;BME280;6597;52.218;9.882;2023-05-08T08:35:26;101568.16;;;16.74;58.49
43770;BME280;6597;52.218;9.882;2023-05-08T08:37:54;101567.47;;;16.71;58.87
43770;BME280;6597;52.218;9.882;2023-05-08T08:40:21;101568.59;;;16.65;59.33
43770;BME280;6597;52.218;9.882;2023-05-08T08:42:47;101561.06;;;16.75;59.54
43770;BME280;6597;52.218;9.882;2023-05-08T08:45:14;101563.97;;;16.88;59.64
43770;BME280;6597;52.218;9.882;2023-05-08T08:47:44;101553.97;;;16.94;57.29
43770;BME280;6597;52.218;9.882;2023-05-08T08:50:12;101552.81;;;16.81;59.00
43770;BME280;6597;52.218;9.882;2023-05-08T08:52:42;101548.34;;;17.00;60.34
43770;BME280;6597;52.218;9.882;2023-05-08T08:55:14;101557.78;;;17.06;56.75
43770;BME280;6597;52.218;9.882;2023-05-08T08:57:48;101543.97;;;17.17;57.51
43770;BME280;6597;52.218;9.882;2023-05-08T09:00:17;101545.28;;;17.27;57.23
43770;BME280;6597;52.218;9.882;2023-05-08T09:02:45;101544.66;;;17.56;56.34
43770;BME280;6597;52.218;9.882;2023-05-08T09:05:13;101545.56;;;17.55;57.03
43770;BME280;6597;52.218;9.882;2023-05-08T09:07:40;101545.03;;;17.66;56.88
43770;BME280;6597;52.218;9.882;2023-05-08T09:10:09;101545.72;;;17.52;56.04
43770;BME280;6597;52.218;9.882;2023-05-08T09:12:39;101547.13;;;17.94;57.02
43770;BME280;6597;52.218;9.882;2023-05-08T09:15:06;101547.91;;;18.12;54.78
43770;BME280;6597;52.218;9.882;2023-05-08T09:17:33;101536.94;;;18.18;55.36
43770;BME280;6597;52.218;9.882;2023-05-08T09:20:01;101541.00;;;18.25;54.84
43770;BME280;6597;52.218;9.882;2023-05-08T09:22:28;101526.94;;;18.23;55.47
43770;BME280;6597;52.218;9.882;2023-05-08T09:24:57;101526.94;;;18.39;55.20
43770;BME280;6597;52.218;9.882;2023-05-08T09:27:25;101520.53;;;18.58;54.69
43770;BME280;6597;52.218;9.882;2023-05-08T09:30:00;101520.44;;;18.91;55.45
43770;BME280;6597;52.218;9.882;2023-05-08T09:32:28;101514.59;;;18.85;51.85
43770;BME280;6597;52.218;9.882;2023-05-08T09:34:55;101525.94;;;18.57;52.11
43770;BME280;6597;52.218;9.882;2023-05-08T09:37:24;101516.50;;;18.83;52.17
43770;BME280;6597;52.218;9.882;2023-05-08T09:39:51;101522.03;;;19.10;52.35
43770;BME280;6597;52.218;9.882;2023-05-08T09:42:18;101501.41;;;19.13;52.71
43770;BME280;6597;52.218;9.882;2023-05-08T09:44:46;101516.53;;;19.13;52.36
43770;BME280;6597;52.218;9.882;2023-05-08T09:47:15;101517.06;;;19.04;51.55
43770;BME280;6597;52.218;9.882;2023-05-08T09:49:56;101522.59;;;19.15;52.79
43770;BME280;6597;52.218;9.882;2023-05-08T09:52:25;101521.22;;;19.23;53.35
43770;BME280;6597;52.218;9.882;2023-05-08T09:54:59;101522.88;;;19.40;52.64
43770;BME280;6597;52.218;9.882;2023-05-08T09:57:27;101521.06;;;19.56;51.24
43770;BME280;6597;52.218;9.882;2023-05-08T10:00:00;101517.00;;;19.94;50.82
43770;BME280;6597;52.218;9.882;2023-05-08T10:02:32;101510.78;;;20.22;49.47
43770;BME280;6597;52.218;9.882;2023-05-08T10:04:59;101503.66;;;20.08;49.37
43770;BME280;6597;52.218;9.882;2023-05-08T10:07:28;101516.91;;;19.95;49.88
43770;BME280;6597;52.218;9.882;2023-05-08T10:10:00;101507.16;;;20.08;48.59
43770;BME280;6597;52.218;9.882;2023-05-08T10:12:27;101507.84;;;19.98;47.88
43770;BME280;6597;52.218;9.882;2023-05-08T10:14:54;101506.69;;;20.16;49.58
43770;BME280;6597;52.218;9.882;2023-05-08T10:17:26;101503.53;;;20.09;50.26
43770;BME280;6597;52.218;9.882;2023-05-08T10:19:57;101502.81;;;19.93;49.14
43770;BME280;6597;52.218;9.882;2023-05-08T10:22:24;101506.91;;;19.99;50.86
43770;BME280;6597;52.218;9.882;2023-05-08T10:24:55;101498.63;;;20.17;48.09
43770;BME280;6597;52.218;9.882;2023-05-08T10:27:29;101492.47;;;20.44;48.34
43770;BME280;6597;52.218;9.882;2023-05-08T10:30:00;101487.31;;;20.55;48.07
43770;BME280;6597;52.218;9.882;2023-05-08T10:32:36;101486.75;;;20.36;47.33
43770;BME280;6597;52.218;9.882;2023-05-08T10:35:07;101495.91;;;20.46;48.55
43770;BME280;6597;52.218;9.882;2023-05-08T10:37:35;101495.34;;;20.41;49.22
43770;BME280;6597;52.218;9.882;2023-05-08T10:40:05;101483.84;;;20.26;48.16
43770;BME280;6597;52.218;9.882;2023-05-08T10:42:32;101493.75;;;20.24;49.44
43770;BME280;6597;52.218;9.882;2023-05-08T10:44:59;101490.31;;;20.22;48.46
43770;BME280;6597;52.218;9.882;2023-05-08T10:47:35;101499.13;;;20.37;47.97
43770;BME280;6597;52.218;9.882;2023-05-08T10:50:11;101495.44;;;20.25;48.07
43770;BME280;6597;52.218;9.882;2023-05-08T10:52:46;101487.75;;;20.20;48.85
43770;BME280;6597;52.218;9.882;2023-05-08T10:55:27;101494.78;;;20.22;49.21
43770;BME280;6597;52.218;9.882;2023-05-08T10:58:11;101485.03;;;20.35;48.27
43770;BME280;6597;52.218;9.882;2023-05-08T11:03:47;101479.63;;;20.50;49.10
43770;BME280;6597;52.218;9.882;2023-05-08T11:06:17;101488.47;;;20.37;49.63
43770;BME280;6597;52.218;9.882;2023-05-08T11:09:02;101491.72;;;20.28;48.89
43770;BME280;6597;52.218;9.882;2023-05-08T11:11:36;101487.59;;;19.95;49.50
43770;BME280;6597;52.218;9.882;2023-05-08T11:14:13;101482.22;;;20.09;50.23
43770;BME280;6597;52.218;9.882;2023-05-08T11:17:03;101478.59;;;20.10;48.49
43770;BME280;6597;52.218;9.882;2023-05-08T11:19:32;101479.16;;;20.15;48.45
43770;BME280;6597;52.218;9.882;2023-05-08T11:22:15;101475.28;;;20.21;49.10
43770;BME280;6597;52.218;9.882;2023-05-08T11:24:51;101471.25;;;20.42;48.96
43770;BME280;6597;52.218;9.882;2023-05-08T11:27:30;101464.97;;;20.15;50.06
43770;BME280;6597;52.218;9.882;2023-05-08T11:30:32;101462.31;;;20.29;49.39
43770;BME280;6597;52.218;9.882;2023-05-08T11:33:33;101455.31;;;20.55;48.72
43770;BME280;6597;52.218;9.882;2023-05-08T11:36:11;101453.00;;;20.63;48.92
43770;BME280;6597;52.218;9.882;2023-05-08T11:38:38;101460.66;;;20.55;49.29
43770;BME280;6597;52.218;9.882;2023-05-08T11:41:06;101458.00;;;20.41;48.71
43770;BME280;6597;52.218;9.882;2023-05-08T11:44:01;101441.88;;;20.57;50.29
43770;BME280;6597;52.218;9.882;2023-05-08T11:46:41;101453.00;;;20.63;50.47
43770;BME280;6597;52.218;9.882;2023-05-08T11:49:12;101453.63;;;20.67;49.71
43770;BME280;6597;52.218;9.882;2023-05-08T11:51:41;101449.25;;;20.66;48.83
43770;BME280;6597;52.218;9.882;2023-05-08T11:54:10;101452.03;;;20.64;49.04
43770;BME280;6597;52.218;9.882;2023-05-08T11:56:38;101451.09;;;20.78;49.37
43770;BME280;6597;52.218;9.882;2023-05-08T11:59:06;101450.00;;;20.95;49.80
43770;BME280;6597;52.218;9.882;2023-05-08T12:01:34;101462.84;;;21.15;48.53
43770;BME280;6597;52.218;9.882;2023-05-08T12:04:02;101458.63;;;21.25;47.38
43770;BME280;6597;52.218;9.882;2023-05-08T12:06:30;101458.81;;;21.35;48.23
43770;BME280;6597;52.218;9.882;2023-05-08T12:08:57;101460.22;;;21.28;46.60
43770;BME280;6597;52.218;9.882;2023-05-08T12:11:25;101460.84;;;21.44;45.35
43770;BME280;6597;52.218;9.882;2023-05-08T12:13:52;101459.16;;;21.56;46.23
43770;BME280;6597;52.218;9.882;2023-05-08T12:16:22;101465.97;;;21.72;46.17
43770;BME280;6597;52.218;9.882;2023-05-08T12:18:51;101461.38;;;21.87;46.24
43770;BME280;6597;52.218;9.882;2023-05-08T12:21:18;101464.28;;;21.59;45.45
43770;BME280;6597;52.218;9.882;2023-05-08T12:23:45;101462.66;;;21.43;45.30
43770;BME280;6597;52.218;9.882;2023-05-08T12:26:12;101455.41;;;21.58;46.47
43770;BME280;6597;52.218;9.882;2023-05-08T12:28:38;101450.81;;;21.73;46.30
43770;BME280;6597;52.218;9.882;2023-05-08T12:31:05;101453.06;;;21.79;48.01
43770;BME280;6597;52.218;9.882;2023-05-08T12:33:33;101447.56;;;21.93;45.91
43770;BME280;6597;52.218;9.882;2023-05-08T12:36:01;101454.63;;;22.07;45.85
43770;BME280;6597;52.218;9.882;2023-05-08T12:38:29;101451.53;;;21.88;44.69
43770;BME280;6597;52.218;9.882;2023-05-08T12:40:56;101454.19;;;22.00;44.88
43770;BME280;6597;52.218;9.882;2023-05-08T12:43:30;101454.28;;;21.99;45.38
43770;BME280;6597;52.218;9.882;2023-05-08T12:45:57;101458.50;;;21.90;45.11
43770;BME280;6597;52.218;9.882;2023-05-08T12:48:23;101456.56;;;22.05;46.51
43770;BME280;6597;52.218;9.882;2023-05-08T12:50:51;101451.31;;;22.03;45.44
43770;BME280;6597;52.218;9.882;2023-05-08T12:53:20;101457.19;;;21.96;45.83
43770;BME280;6597;52.218;9.882;2023-05-08T12:55:52;101464.06;;;21.87;46.18
43770;BME280;6597;52.218;9.882;2023-05-08T12:58:19;101456.59;;;22.29;45.39
43770;BME280;6597;52.218;9.882;2023-05-08T13:00:50;101452.81;;;22.44;44.45
43770;BME280;6597;52.218;9.882;2023-05-08T13:03:23;101458.72;;;22.36;43.79
43770;BME280;6597;52.218;9.882;2023-05-08T13:05:52;101436.06;;;22.53;44.77
43770;BME280;6597;52.218;9.882;2023-05-08T13:08:19;101437.25;;;22.73;43.97
43770;BME280;6597;52.218;9.882;2023-05-08T13:10:48;101438.31;;;22.71;43.67
43770;BME280;6597;52.218;9.882;2023-05-08T13:13:15;101438.19;;;22.61;45.36
43770;BME280;6597;52.218;9.882;2023-05-08T13:15:42;101429.13;;;22.51;44.64